sensor_id;sensor_type;location;lat;lon;timestamp;pressure;altitude;pressure_sealevel;temperature;humidity
84116;BME280;74211;52.234;9.860;2024-02-23T00:00:09;97817.53;;;9.16;59.95
84116;BME280;74211;52.234;9.860;2024-02-23T00:02:39;97800.38;;;9.15;58.83
84116;BME280;74211;52.234;9.860;2024-02-23T00:05:12;97819.69;;;9.24;56.94
84116;BME280;74211;52.234;9.860;2024-02-23T00:07:42;97814.41;;;9.14;57.23
84116;BME280;74211;52.234;9.860;2024-02-23T00:10:12;97838.84;;;9.13;57.28
84116;BME280;74211;52.234;9.860;2024-02-23T00:12:42;97842.94;;;9.04;57.74
84116;BME280;74211;52.234;9.860;2024-02-23T00:15:14;97842.13;;;8.98;58.40
84116;BME280;74211;52.234;9.860;2024-02-23T00:17:44;97826.47;;;8.93;59.16
84116;BME280;74211;52.234;9.860;2024-02-23T00:20:16;97840.75;;;8.91;59.25
84116;BME280;74211;52.234;9.860;2024-02-23T00:22:46;97854.56;;;8.96;59.17
84116;BME280;74211;52.234;9.860;2024-02-23T00:25:16;97842.91;;;8.99;58.73
84116;BME280;74211;52.234;9.860;2024-02-23T00:27:47;97844.47;;;9.00;58.73
84116;BME280;74211;52.234;9.860;2024-02-23T00:30:17;97843.97;;;9.03;58.98
84116;BME280;74211;52.234;9.860;2024-02-23T00:32:47;97843.19;;;9.02;58.69
84116;BME280;74211;52.234;9.860;2024-02-23T00:35:21;97838.81;;;9.08;58.66
84116;BME280;74211;52.234;9.860;2024-02-23T00:37:50;97850.78;;;9.09;57.49
84116;BME280;74211;52.234;9.860;2024-02-23T00:40:21;97840.41;;;9.14;57.59
84116;BME280;74211;52.234;9.860;2024-02-23T00:42:51;97860.72;;;9.17;57.31
84116;BME280;74211;52.234;9.860;2024-02-23T00:45:21;97863.06;;;9.19;57.34
84116;BME280;74211;52.234;9.860;2024-02-23T00:47:51;97881.03;;;9.20;56.46
84116;BME280;74211;52.234;9.860;2024-02-23T00:50:23;97872.44;;;9.20;57.21
84116;BME280;74211;52.234;9.860;2024-02-23T00:52:54;97887.28;;;9.19;58.25
84116;BME280;74211;52.234;9.860;2024-02-23T00:55:24;97873.81;;;8.95;57.99
84116;BME280;74211;52.234;9.860;2024-02-23T00:57:54;97887.44;;;9.08;57.99
84116;BME280;74211;52.234;9.860;2024-02-23T01:00:24;97886.59;;;9.02;58.33
84116;BME280;74211;52.234;9.860;2024-02-23T01:02:54;97893.44;;;9.08;58.53
84116;BME280;74211;52.234;9.860;2024-02-23T01:05:29;97899.13;;;9.05;59.04
84116;BME280;74211;52.234;9.860;2024-02-23T01:07:59;97917.81;;;9.02;58.91
84116;BME280;74211;52.234;9.860;2024-02-23T01:10:29;97921.19;;;9.02;58.77
84116;BME280;74211;52.234;9.860;2024-02-23T01:12:59;97919.44;;;9.08;58.31
84116;BME280;74211;52.234;9.860;2024-02-23T01:15:29;97932.13;;;9.05;57.97
84116;BME280;74211;52.234;9.860;2024-02-23T01:18:01;97951.91;;;9.06;57.51
84116;BME280;74211;52.234;9.860;2024-02-23T01:20:35;97991.16;;;9.04;57.58
84116;BME280;74211;52.234;9.860;2024-02-23T01:23:05;97972.06;;;8.93;57.71
84116;BME280;74211;52.234;9.860;2024-02-23T01:25:35;97970.69;;;8.86;58.77
84116;BME280;74211;52.234;9.860;2024-02-23T01:28:06;98003.78;;;8.68;58.86
84116;BME280;74211;52.234;9.860;2024-02-23T01:30:36;98016.09;;;8.56;59.70
84116;BME280;74211;52.234;9.860;2024-02-23T01:33:06;98027.31;;;8.40;61.98
84116;BME280;74211;52.234;9.860;2024-02-23T01:35:39;98027.97;;;7.63;68.90
84116;BME280;74211;52.234;9.860;2024-02-23T01:38:09;98033.09;;;7.30;69.84
84116;BME280;74211;52.234;9.860;2024-02-23T01:40:46;98043.94;;;7.27;69.52
84116;BME280;74211;52.234;9.860;2024-02-23T01:43:16;98056.22;;;7.32;66.84
84116;BME280;74211;52.234;9.860;2024-02-23T01:45:46;98059.00;;;7.42;66.78
84116;BME280;74211;52.234;9.860;2024-02-23T01:48:16;98071.03;;;7.48;66.42
84116;BME280;74211;52.234;9.860;2024-02-23T01:50:49;98096.50;;;7.51;67.15
84116;BME280;74211;52.234;9.860;2024-02-23T01:53:20;98114.72;;;7.39;69.24
84116;BME280;74211;52.234;9.860;2024-02-23T01:55:53;98128.72;;;7.26;69.72
84116;BME280;74211;52.234;9.860;2024-02-23T01:58:24;98123.34;;;7.16;70.94
84116;BME280;74211;52.234;9.860;2024-02-23T02:00:54;98128.25;;;6.78;75.12
84116;BME280;74211;52.234;9.860;2024-02-23T02:03:24;98166.06;;;6.32;79.81
84116;BME280;74211;52.234;9.860;2024-02-23T02:05:57;98167.50;;;6.16;80.26
84116;BME280;74211;52.234;9.860;2024-02-23T02:08:28;98162.63;;;5.97;79.25
84116;BME280;74211;52.234;9.860;2024-02-23T02:10:58;98182.59;;;6.19;78.44
84116;BME280;74211;52.234;9.860;2024-02-23T02:13:28;98181.13;;;6.12;77.69
84116;BME280;74211;52.234;9.860;2024-02-23T02:15:59;98198.00;;;6.14;76.81
84116;BME280;74211;52.234;9.860;2024-02-23T02:18:30;98191.69;;;6.10;76.52
84116;BME280;74211;52.234;9.860;2024-02-23T02:21:03;98190.19;;;6.03;75.75
84116;BME280;74211;52.234;9.860;2024-02-23T02:23:32;98208.31;;;6.03;77.04
84116;BME280;74211;52.234;9.860;2024-02-23T02:26:04;98217.97;;;5.96;78.49
84116;BME280;74211;52.234;9.860;2024-02-23T02:28:35;98237.06;;;5.95;79.51
84116;BME280;74211;52.234;9.860;2024-02-23T02:31:06;98233.03;;;5.99;79.70
84116;BME280;74211;52.234;9.860;2024-02-23T02:33:36;98244.84;;;5.95;80.38
84116;BME280;74211;52.234;9.860;2024-02-23T02:36:12;98255.47;;;5.86;80.00
84116;BME280;74211;52.234;9.860;2024-02-23T02:38:42;98247.56;;;5.81;79.02
84116;BME280;74211;52.234;9.860;2024-02-23T02:41:12;98267.09;;;5.77;78.50
84116;BME280;74211;52.234;9.860;2024-02-23T02:43:42;98260.03;;;5.73;78.59
84116;BME280;74211;52.234;9.860;2024-02-23T02:46:13;98286.69;;;5.73;78.17
84116;BME280;74211;52.234;9.860;2024-02-23T02:48:43;98276.53;;;5.72;77.40
84116;BME280;74211;52.234;9.860;2024-02-23T02:51:30;98291.06;;;5.73;77.73
84116;BME280;74211;52.234;9.860;2024-02-23T02:54:00;98301.75;;;5.76;76.65
84116;BME280;74211;52.234;9.860;2024-02-23T02:56:29;98299.63;;;5.73;76.45
84116;BME280;74211;52.234;9.860;2024-02-23T02:58:59;98307.38;;;5.73;75.64
84116;BME280;74211;52.234;9.860;2024-02-23T03:01:29;98311.66;;;5.79;74.87
84116;BME280;74211;52.234;9.860;2024-02-23T03:03:59;98308.06;;;5.80;75.07
84116;BME280;74211;52.234;9.860;2024-02-23T03:06:32;98317.03;;;5.78;74.74
84116;BME280;74211;52.234;9.860;2024-02-23T03:09:02;98314.03;;;5.81;74.14
84116;BME280;74211;52.234;9.860;2024-02-23T03:11:32;98329.13;;;5.84;73.25
84116;BME280;74211;52.234;9.860;2024-02-23T03:14:03;98339.47;;;5.84;73.54
84116;BME280;74211;52.234;9.860;2024-02-23T03:16:33;98344.66;;;5.84;73.25
84116;BME280;74211;52.234;9.860;2024-02-23T03:19:04;98336.47;;;5.87;73.07
84116;BME280;74211;52.234;9.860;2024-02-23T03:21:37;98347.78;;;5.93;72.68
84116;BME280;74211;52.234;9.860;2024-02-23T03:24:08;98360.41;;;6.01;71.67
84116;BME280;74211;52.234;9.860;2024-02-23T03:26:38;98356.97;;;6.07;71.98
84116;BME280;74211;52.234;9.860;2024-02-23T03:29:08;98350.22;;;6.06;72.26
84116;BME280;74211;52.234;9.860;2024-02-23T03:31:39;98366.53;;;6.06;72.18
84116;BME280;74211;52.234;9.860;2024-02-23T03:34:09;98358.03;;;5.99;72.66
84116;BME280;74211;52.234;9.860;2024-02-23T03:36:43;98368.19;;;6.01;71.87
84116;BME280;74211;52.234;9.860;2024-02-23T03:39:13;98348.56;;;5.93;71.08
84116;BME280;74211;52.234;9.860;2024-02-23T03:41:44;98384.66;;;6.06;71.50
84116;BME280;74211;52.234;9.860;2024-02-23T03:44:13;98378.75;;;5.99;71.43
84116;BME280;74211;52.234;9.860;2024-02-23T03:46:43;98379.16;;;5.96;70.83
84116;BME280;74211;52.234;9.860;2024-02-23T03:49:14;98383.56;;;5.96;71.12
84116;BME280;74211;52.234;9.860;2024-02-23T03:51:47;98372.00;;;5.98;70.53
84116;BME280;74211;52.234;9.860;2024-02-23T03:54:16;98384.72;;;6.00;70.73
84116;BME280;74211;52.234;9.860;2024-02-23T03:56:47;98391.09;;;5.97;70.89
84116;BME280;74211;52.234;9.860;2024-02-23T03:59:16;98408.22;;;5.98;70.12
84116;BME280;74211;52.234;9.860;2024-02-23T04:01:47;98408.59;;;6.02;69.74
84116;BME280;74211;52.234;9.860;2024-02-23T04:04:18;98408.78;;;6.00;69.66
84116;BME280;74211;52.234;9.860;2024-02-23T04:06:50;98415.75;;;6.00;69.55
84116;BME280;74211;52.234;9.860;2024-02-23T04:09:20;98408.63;;;5.95;69.38
84116;BME280;74211;52.234;9.860;2024-02-23T04:11:50;98411.47;;;5.94;69.09
84116;BME280;74211;52.234;9.860;2024-02-23T04:14:20;98412.91;;;5.89;69.59
84116;BME280;74211;52.234;9.860;2024-02-23T04:16:51;98417.47;;;5.87;69.43
84116;BME280;74211;52.234;9.860;2024-02-23T04:19:21;98423.25;;;5.89;68.88
84116;BME280;74211;52.234;9.860;2024-02-23T04:21:53;98407.97;;;5.81;68.82
84116;BME280;74211;52.234;9.860;2024-02-23T04:24:23;98425.63;;;5.91;68.82
84116;BME280;74211;52.234;9.860;2024-02-23T04:26:53;98432.00;;;5.88;68.28
84116;BME280;74211;52.234;9.860;2024-02-23T04:29:24;98424.63;;;5.92;68.75
84116;BME280;74211;52.234;9.860;2024-02-23T04:31:54;98438.91;;;5.95;68.56
84116;BME280;74211;52.234;9.860;2024-02-23T04:34:24;98444.06;;;5.95;69.57
84116;BME280;74211;52.234;9.860;2024-02-23T04:36:57;98440.16;;;5.92;69.74
84116;BME280;74211;52.234;9.860;2024-02-23T04:39:26;98446.91;;;5.93;69.53
84116;BME280;74211;52.234;9.860;2024-02-23T04:41:56;98451.63;;;5.96;69.48
84116;BME280;74211;52.234;9.860;2024-02-23T04:44:27;98454.00;;;5.98;69.49
84116;BME280;74211;52.234;9.860;2024-02-23T04:46:57;98465.16;;;5.98;69.74
84116;BME280;74211;52.234;9.860;2024-02-23T04:49:27;98471.91;;;5.99;69.25
84116;BME280;74211;52.234;9.860;2024-02-23T04:51:59;98469.47;;;6.04;68.35
84116;BME280;74211;52.234;9.860;2024-02-23T04:54:29;98471.84;;;6.06;68.43
84116;BME280;74211;52.234;9.860;2024-02-23T04:56:59;98480.13;;;6.14;66.83
84116;BME280;74211;52.234;9.860;2024-02-23T04:59:29;98479.06;;;6.22;65.46
84116;BME280;74211;52.234;9.860;2024-02-23T05:01:59;98487.19;;;6.25;66.11
84116;BME280;74211;52.234;9.860;2024-02-23T05:04:29;98492.59;;;6.24;66.55
84116;BME280;74211;52.234;9.860;2024-02-23T05:07:02;98496.38;;;6.21;66.44
84116;BME280;74211;52.234;9.860;2024-02-23T05:09:33;98484.50;;;6.14;66.36
84116;BME280;74211;52.234;9.860;2024-02-23T05:12:03;98497.59;;;6.19;65.51
84116;BME280;74211;52.234;9.860;2024-02-23T05:14:33;98488.84;;;6.20;64.59
84116;BME280;74211;52.234;9.860;2024-02-23T05:17:04;98502.72;;;6.25;64.67
84116;BME280;74211;52.234;9.860;2024-02-23T05:19:33;98508.13;;;6.24;65.26
84116;BME280;74211;52.234;9.860;2024-02-23T05:22:06;98506.38;;;6.18;65.21
84116;BME280;74211;52.234;9.860;2024-02-23T05:24:36;98512.56;;;6.17;65.21
84116;BME280;74211;52.234;9.860;2024-02-23T05:27:06;98517.34;;;6.13;65.45
84116;BME280;74211;52.234;9.860;2024-02-23T05:29:36;98510.25;;;6.09;64.34
84116;BME280;74211;52.234;9.860;2024-02-23T05:32:06;98530.09;;;6.15;63.72
84116;BME280;74211;52.234;9.860;2024-02-23T05:34:37;98526.72;;;6.14;63.47
84116;BME280;74211;52.234;9.860;2024-02-23T05:37:10;98523.19;;;6.09;63.26
84116;BME280;74211;52.234;9.860;2024-02-23T05:39:40;98538.31;;;6.12;63.48
84116;BME280;74211;52.234;9.860;2024-02-23T05:42:13;98536.13;;;6.09;64.22
84116;BME280;74211;52.234;9.860;2024-02-23T05:44:43;98540.34;;;6.03;64.38
84116;BME280;74211;52.234;9.860;2024-02-23T05:47:15;98533.81;;;6.01;64.13
84116;BME280;74211;52.234;9.860;2024-02-23T05:49:45;98538.78;;;6.02;64.62
84116;BME280;74211;52.234;9.860;2024-02-23T05:52:17;98537.56;;;6.05;64.13
84116;BME280;74211;52.234;9.860;2024-02-23T05:54:47;98545.91;;;6.07;64.53
84116;BME280;74211;52.234;9.860;2024-02-23T05:57:18;98552.81;;;6.13;64.02
84116;BME280;74211;52.234;9.860;2024-02-23T05:59:48;98555.75;;;6.16;64.38
84116;BME280;74211;52.234;9.860;2024-02-23T06:02:20;98556.94;;;6.20;64.06
84116;BME280;74211;52.234;9.860;2024-02-23T06:04:50;98565.69;;;6.19;63.93
84116;BME280;74211;52.234;9.860;2024-02-23T06:07:23;98571.66;;;6.20;64.48
84116;BME280;74211;52.234;9.860;2024-02-23T06:09:56;98563.28;;;6.24;63.96
84116;BME280;74211;52.234;9.860;2024-02-23T06:12:26;98572.25;;;6.22;63.48
84116;BME280;74211;52.234;9.860;2024-02-23T06:14:56;98579.97;;;6.29;63.38
84116;BME280;74211;52.234;9.860;2024-02-23T06:17:26;98575.13;;;6.32;63.40
84116;BME280;74211;52.234;9.860;2024-02-23T06:19:56;98588.53;;;6.29;63.77
84116;BME280;74211;52.234;9.860;2024-02-23T06:22:30;98576.72;;;6.33;64.07
84116;BME280;74211;52.234;9.860;2024-02-23T06:25:02;98586.50;;;6.31;63.63
84116;BME280;74211;52.234;9.860;2024-02-23T06:27:32;98594.13;;;6.26;63.42
84116;BME280;74211;52.234;9.860;2024-02-23T06:30:03;98594.25;;;6.31;63.14
84116;BME280;74211;52.234;9.860;2024-02-23T06:32:33;98586.38;;;6.26;63.62
84116;BME280;74211;52.234;9.860;2024-02-23T06:35:04;98606.59;;;6.36;62.65
84116;BME280;74211;52.234;9.860;2024-02-23T06:37:37;98607.97;;;6.38;63.02
84116;BME280;74211;52.234;9.860;2024-02-23T06:40:08;98609.97;;;6.36;63.67
84116;BME280;74211;52.234;9.860;2024-02-23T06:42:35;98604.56;;;6.38;63.45
84116;BME280;74211;52.234;9.860;2024-02-23T06:45:06;98608.59;;;6.34;63.04
84116;BME280;74211;52.234;9.860;2024-02-23T06:47:36;98614.13;;;6.37;62.93
84116;BME280;74211;52.234;9.860;2024-02-23T06:50:07;98618.53;;;6.37;63.47
84116;BME280;74211;52.234;9.860;2024-02-23T06:52:40;98614.13;;;6.37;63.12
84116;BME280;74211;52.234;9.860;2024-02-23T06:55:10;98602.69;;;6.27;62.71
84116;BME280;74211;52.234;9.860;2024-02-23T06:57:40;98633.84;;;6.38;63.08
84116;BME280;74211;52.234;9.860;2024-02-23T07:00:11;98629.63;;;6.44;62.91
84116;BME280;74211;52.234;9.860;2024-02-23T07:02:41;98640.03;;;6.37;63.53
84116;BME280;74211;52.234;9.860;2024-02-23T07:05:11;98624.66;;;6.42;62.77
84116;BME280;74211;52.234;9.860;2024-02-23T07:07:44;98642.97;;;6.47;62.91
84116;BME280;74211;52.234;9.860;2024-02-23T07:10:14;98650.59;;;6.60;63.22
84116;BME280;74211;52.234;9.860;2024-02-23T07:12:44;98644.09;;;6.51;62.05
84116;BME280;74211;52.234;9.860;2024-02-23T07:15:15;98650.72;;;6.47;62.49
84116;BME280;74211;52.234;9.860;2024-02-23T07:17:44;98654.81;;;6.55;62.72
84116;BME280;74211;52.234;9.860;2024-02-23T07:20:15;98657.03;;;6.51;63.12
84116;BME280;74211;52.234;9.860;2024-02-23T07:22:48;98663.88;;;6.46;62.17
84116;BME280;74211;52.234;9.860;2024-02-23T07:25:18;98671.00;;;6.50;62.20
84116;BME280;74211;52.234;9.860;2024-02-23T07:27:49;98672.03;;;6.49;61.86
84116;BME280;74211;52.234;9.860;2024-02-23T07:30:19;98680.94;;;6.53;62.17
84116;BME280;74211;52.234;9.860;2024-02-23T07:32:49;98678.34;;;6.53;62.63
84116;BME280;74211;52.234;9.860;2024-02-23T07:35:19;98685.50;;;6.58;62.29
84116;BME280;74211;52.234;9.860;2024-02-23T07:37:52;98690.09;;;6.56;63.75
84116;BME280;74211;52.234;9.860;2024-02-23T07:40:22;98689.72;;;6.52;63.70
84116;BME280;74211;52.234;9.860;2024-02-23T07:42:52;98689.13;;;6.50;64.36
84116;BME280;74211;52.234;9.860;2024-02-23T07:45:22;98709.28;;;6.48;63.28
84116;BME280;74211;52.234;9.860;2024-02-23T07:47:53;98720.00;;;6.52;63.63
84116;BME280;74211;52.234;9.860;2024-02-23T07:50:24;98710.63;;;6.51;63.02
84116;BME280;74211;52.234;9.860;2024-02-23T07:52:56;98726.16;;;6.57;63.13
84116;BME280;74211;52.234;9.860;2024-02-23T07:55:26;98728.22;;;6.49;63.67
84116;BME280;74211;52.234;9.860;2024-02-23T07:58:15;98719.69;;;6.42;64.95
84116;BME280;74211;52.234;9.860;2024-02-23T08:01:06;98743.69;;;6.55;63.88
84116;BME280;74211;52.234;9.860;2024-02-23T08:03:52;98729.25;;;6.41;64.32
84116;BME280;74211;52.234;9.860;2024-02-23T08:06:22;98754.25;;;6.54;64.18
84116;BME280;74211;52.234;9.860;2024-02-23T08:08:55;98766.56;;;6.65;64.35
84116;BME280;74211;52.234;9.860;2024-02-23T08:11:26;98762.16;;;6.66;64.27
84116;BME280;74211;52.234;9.860;2024-02-23T08:13:59;98759.78;;;6.64;64.64
84116;BME280;74211;52.234;9.860;2024-02-23T08:16:30;98758.00;;;6.65;63.71
84116;BME280;74211;52.234;9.860;2024-02-23T08:19:00;98753.81;;;6.64;65.03
84116;BME280;74211;52.234;9.860;2024-02-23T08:21:30;98760.06;;;6.81;63.76
84116;BME280;74211;52.234;9.860;2024-02-23T08:24:03;98763.88;;;7.03;66.53
84116;BME280;74211;52.234;9.860;2024-02-23T08:26:34;98760.13;;;7.17;62.11
84116;BME280;74211;52.234;9.860;2024-02-23T08:29:05;98755.25;;;7.27;62.09
84116;BME280;74211;52.234;9.860;2024-02-23T08:31:35;98761.59;;;7.32;62.10
84116;BME280;74211;52.234;9.860;2024-02-23T08:34:09;98751.22;;;7.32;61.47
84116;BME280;74211;52.234;9.860;2024-02-23T08:36:40;98769.75;;;7.53;60.60
84116;BME280;74211;52.234;9.860;2024-02-23T08:39:12;98764.56;;;7.53;60.02
84116;BME280;74211;52.234;9.860;2024-02-23T08:41:42;98764.78;;;7.70;59.02
84116;BME280;74211;52.234;9.860;2024-02-23T08:44:12;98765.94;;;7.74;60.01
84116;BME280;74211;52.234;9.860;2024-02-23T08:46:42;98771.50;;;7.78;59.41
84116;BME280;74211;52.234;9.860;2024-02-23T08:49:13;98746.47;;;7.65;58.81
84116;BME280;74211;52.234;9.860;2024-02-23T08:51:43;98742.66;;;7.68;59.34
84116;BME280;74211;52.234;9.860;2024-02-23T08:54:16;98751.22;;;7.68;58.53
84116;BME280;74211;52.234;9.860;2024-02-23T08:56:45;98742.03;;;7.84;58.88
84116;BME280;74211;52.234;9.860;2024-02-23T08:59:15;98748.69;;;7.80;56.76
84116;BME280;74211;52.234;9.860;2024-02-23T09:01:46;98747.59;;;7.87;56.84
84116;BME280;74211;52.234;9.860;2024-02-23T09:04:17;98759.63;;;8.00;56.72
84116;BME280;74211;52.234;9.860;2024-02-23T09:06:47;98756.81;;;8.02;56.11
84116;BME280;74211;52.234;9.860;2024-02-23T09:09:23;98747.50;;;8.12;56.96
84116;BME280;74211;52.234;9.860;2024-02-23T09:11:53;98762.53;;;8.22;55.80
84116;BME280;74211;52.234;9.860;2024-02-23T09:14:23;98762.06;;;8.13;56.33
84116;BME280;74211;52.234;9.860;2024-02-23T09:16:53;98758.09;;;8.11;56.66
84116;BME280;74211;52.234;9.860;2024-02-23T09:19:23;98787.63;;;8.28;56.80
84116;BME280;74211;52.234;9.860;2024-02-23T09:21:54;98766.13;;;8.21;57.17
84116;BME280;74211;52.234;9.860;2024-02-23T09:24:26;98779.78;;;8.35;57.76
84116;BME280;74211;52.234;9.860;2024-02-23T09:26:56;98782.25;;;8.11;57.76
84116;BME280;74211;52.234;9.860;2024-02-23T09:29:27;98788.31;;;8.05;57.93
84116;BME280;74211;52.234;9.860;2024-02-23T09:31:57;98795.69;;;8.08;58.90
84116;BME280;74211;52.234;9.860;2024-02-23T09:34:27;98807.00;;;8.14;57.83
84116;BME280;74211;52.234;9.860;2024-02-23T09:36:57;98793.25;;;8.25;57.51
84116;BME280;74211;52.234;9.860;2024-02-23T09:39:30;98758.69;;;8.13;56.28
84116;BME280;74211;52.234;9.860;2024-02-23T09:42:01;98794.13;;;8.37;57.07
84116;BME280;74211;52.234;9.860;2024-02-23T09:44:32;98801.31;;;8.53;57.85
84116;BME280;74211;52.234;9.860;2024-02-23T09:47:03;98805.97;;;8.75;59.04
84116;BME280;74211;52.234;9.860;2024-02-23T09:49:39;98778.22;;;8.45;56.62
84116;BME280;74211;52.234;9.860;2024-02-23T09:52:10;98804.28;;;8.68;58.13
84116;BME280;74211;52.234;9.860;2024-02-23T09:54:43;98803.50;;;8.80;56.72
84116;BME280;74211;52.234;9.860;2024-02-23T09:57:14;98806.59;;;9.00;56.35
84116;BME280;74211;52.234;9.860;2024-02-23T09:59:46;98808.53;;;9.16;56.57
84116;BME280;74211;52.234;9.860;2024-02-23T10:02:18;98803.81;;;9.25;58.52
84116;BME280;74211;52.234;9.860;2024-02-23T10:04:49;98793.38;;;8.90;54.17
84116;BME280;74211;52.234;9.860;2024-02-23T10:07:21;98785.97;;;8.75;55.22
84116;BME280;74211;52.234;9.860;2024-02-23T10:09:55;98788.34;;;8.77;54.81
84116;BME280;74211;52.234;9.860;2024-02-23T10:12:25;98793.22;;;8.73;55.62
84116;BME280;74211;52.234;9.860;2024-02-23T10:14:55;98803.78;;;9.13;57.29
84116;BME280;74211;52.234;9.860;2024-02-23T10:17:26;98805.72;;;9.18;55.61
84116;BME280;74211;52.234;9.860;2024-02-23T10:19:59;98823.13;;;9.29;55.71
84116;BME280;74211;52.234;9.860;2024-02-23T10:22:31;98811.81;;;9.12;52.96
84116;BME280;74211;52.234;9.860;2024-02-23T10:25:05;98809.34;;;9.17;53.25
84116;BME280;74211;52.234;9.860;2024-02-23T10:27:35;98815.47;;;9.22;52.25
84116;BME280;74211;52.234;9.860;2024-02-23T10:30:06;98820.41;;;9.47;53.71
84116;BME280;74211;52.234;9.860;2024-02-23T10:32:38;98830.59;;;9.72;52.40
84116;BME280;74211;52.234;9.860;2024-02-23T10:35:12;98821.66;;;9.80;51.73
84116;BME280;74211;52.234;9.860;2024-02-23T10:37:44;98818.84;;;9.58;51.31
84116;BME280;74211;52.234;9.860;2024-02-23T10:40:21;98811.38;;;9.50;51.70
84116;BME280;74211;52.234;9.860;2024-02-23T10:42:56;98815.09;;;9.30;53.85
84116;BME280;74211;52.234;9.860;2024-02-23T10:45:27;98811.22;;;8.98;52.97
84116;BME280;74211;52.234;9.860;2024-02-23T10:47:59;98817.44;;;8.85;54.42
84116;BME280;74211;52.234;9.860;2024-02-23T10:50:29;98819.69;;;8.82;53.95
84116;BME280;74211;52.234;9.860;2024-02-23T10:53:00;98820.69;;;8.81;53.53
84116;BME280;74211;52.234;9.860;2024-02-23T10:55:36;98821.94;;;8.78;53.63
84116;BME280;74211;52.234;9.860;2024-02-23T10:58:06;98819.88;;;8.68;52.89
84116;BME280;74211;52.234;9.860;2024-02-23T11:00:38;98820.47;;;8.71;54.45
84116;BME280;74211;52.234;9.860;2024-02-23T11:03:09;98825.25;;;8.85;53.86
84116;BME280;74211;52.234;9.860;2024-02-23T11:05:40;98816.00;;;8.89;55.17
84116;BME280;74211;52.234;9.860;2024-02-23T11:08:10;98812.81;;;8.99;55.28
84116;BME280;74211;52.234;9.860;2024-02-23T11:10:48;98826.59;;;8.88;53.69
84116;BME280;74211;52.234;9.860;2024-02-23T11:13:18;98827.66;;;9.33;52.76
84116;BME280;74211;52.234;9.860;2024-02-23T11:16:02;98798.22;;;9.80;51.64
84116;BME280;74211;52.234;9.860;2024-02-23T11:18:34;98810.00;;;10.11;50.08
84116;BME280;74211;52.234;9.860;2024-02-23T11:21:05;98782.94;;;9.83;50.18
84116;BME280;74211;52.234;9.860;2024-02-23T11:23:40;98797.34;;;10.02;51.05
84116;BME280;74211;52.234;9.860;2024-02-23T11:26:14;98812.16;;;10.14;51.50
84116;BME280;74211;52.234;9.860;2024-02-23T11:28:47;98801.59;;;9.80;50.57
84116;BME280;74211;52.234;9.860;2024-02-23T11:31:16;98799.34;;;9.72;51.42
84116;BME280;74211;52.234;9.860;2024-02-23T11:33:48;98800.03;;;9.79;51.68
84116;BME280;74211;52.234;9.860;2024-02-23T11:36:22;98793.78;;;9.80;50.41
84116;BME280;74211;52.234;9.860;2024-02-23T11:38:54;98796.63;;;9.79;50.73
84116;BME280;74211;52.234;9.860;2024-02-23T11:41:29;98808.50;;;9.75;53.29
84116;BME280;74211;52.234;9.860;2024-02-23T11:43:59;98787.63;;;9.46;52.25
84116;BME280;74211;52.234;9.860;2024-02-23T11:46:30;98811.84;;;9.23;51.31
84116;BME280;74211;52.234;9.860;2024-02-23T11:49:00;98800.41;;;9.24;52.42
84116;BME280;74211;52.234;9.860;2024-02-23T11:51:31;98803.31;;;10.15;50.72
84116;BME280;74211;52.234;9.860;2024-02-23T11:54:01;98796.25;;;9.87;49.00
84116;BME280;74211;52.234;9.860;2024-02-23T11:56:35;98801.84;;;9.79;51.51
84116;BME280;74211;52.234;9.860;2024-02-23T11:59:04;98796.31;;;9.63;50.58
84116;BME280;74211;52.234;9.860;2024-02-23T12:01:35;98800.56;;;9.93;50.94
84116;BME280;74211;52.234;9.860;2024-02-23T12:04:06;98791.91;;;11.44;48.42
84116;BME280;74211;52.234;9.860;2024-02-23T12:06:36;98786.06;;;12.20;45.79
84116;BME280;74211;52.234;9.860;2024-02-23T12:09:06;98787.22;;;12.07;46.01
84116;BME280;74211;52.234;9.860;2024-02-23T12:11:39;98789.16;;;12.43;45.33
84116;BME280;74211;52.234;9.860;2024-02-23T12:14:10;98789.56;;;12.57;44.44
84116;BME280;74211;52.234;9.860;2024-02-23T12:16:41;98803.34;;;11.05;46.55
84116;BME280;74211;52.234;9.860;2024-02-23T12:19:11;98801.16;;;10.23;48.75
84116;BME280;74211;52.234;9.860;2024-02-23T12:21:45;98798.22;;;10.08;49.61
84116;BME280;74211;52.234;9.860;2024-02-23T12:24:15;98787.78;;;9.80;49.58
84116;BME280;74211;52.234;9.860;2024-02-23T12:26:53;98788.16;;;10.40;48.79
84116;BME280;74211;52.234;9.860;2024-02-23T12:29:23;98789.69;;;10.36;48.38
84116;BME280;74211;52.234;9.860;2024-02-23T12:32:02;98798.34;;;10.13;48.67
84116;BME280;74211;52.234;9.860;2024-02-23T12:34:32;98780.47;;;10.79;47.81
84116;BME280;74211;52.234;9.860;2024-02-23T12:37:03;98795.75;;;10.87;47.63
84116;BME280;74211;52.234;9.860;2024-02-23T12:39:33;98787.69;;;10.71;49.19
84116;BME280;74211;52.234;9.860;2024-02-23T12:42:06;98787.97;;;10.58;48.95
84116;BME280;74211;52.234;9.860;2024-02-23T12:44:36;98785.47;;;10.97;48.66
84116;BME280;74211;52.234;9.860;2024-02-23T12:47:07;98791.56;;;10.40;48.79
84116;BME280;74211;52.234;9.860;2024-02-23T12:49:37;98797.78;;;10.11;49.02
84116;BME280;74211;52.234;9.860;2024-02-23T12:52:11;98797.22;;;11.71;45.94
84116;BME280;74211;52.234;9.860;2024-02-23T12:54:42;98778.22;;;11.76;44.82
84116;BME280;74211;52.234;9.860;2024-02-23T12:57:18;98801.03;;;11.64;46.39
84116;BME280;74211;52.234;9.860;2024-02-23T12:59:47;98790.16;;;11.33;45.28
84116;BME280;74211;52.234;9.860;2024-02-23T13:02:17;98806.72;;;10.55;46.30
84116;BME280;74211;52.234;9.860;2024-02-23T13:04:47;98794.94;;;10.13;48.56
84116;BME280;74211;52.234;9.860;2024-02-23T13:07:18;98799.09;;;10.25;48.12
84116;BME280;74211;52.234;9.860;2024-02-23T13:09:48;98789.94;;;10.23;49.62
84116;BME280;74211;52.234;9.860;2024-02-23T13:12:20;98805.53;;;9.94;49.57
84116;BME280;74211;52.234;9.860;2024-02-23T13:14:51;98814.25;;;9.88;51.02
84116;BME280;74211;52.234;9.860;2024-02-23T13:17:21;98806.38;;;9.83;51.21
84116;BME280;74211;52.234;9.860;2024-02-23T13:19:51;98805.34;;;9.72;51.79
84116;BME280;74211;52.234;9.860;2024-02-23T13:22:36;98816.28;;;9.86;52.17
84116;BME280;74211;52.234;9.860;2024-02-23T13:25:07;98803.09;;;9.76;50.53
84116;BME280;74211;52.234;9.860;2024-02-23T13:27:39;98810.06;;;9.87;50.69
84116;BME280;74211;52.234;9.860;2024-02-23T13:30:10;98819.25;;;9.90;50.62